Impacts METAR Board
IDs:

KDTW - Detroit Metro/Wayne, MI, US

Updated at: 2100 UTC 21 Sep 2021
Potential Impact None Slight Moderate High
Time 21/09Z 21/10Z 21/11Z 21/12Z 21/13Z 21/14Z 21/15Z 21/16Z 21/17Z 21/18Z 21/19Z 21/20Z 21/21Z
Temp71 71 71 69 71 71 72 72 70 70 73 76 74
Dewpt65 66 65 65 64 64 65 65 67 68 70 68 67
Altim30.02 30.02 30.02 30.01 30.02 30.02 30.04 30.05 30.06 30.05 30.03 30.02 30.01
VIS8 7 6 8 8 7 7 7 1 4 7 8 8
CIG35 35 40 70 25 25 22 23 19 20 60 60 60
CoverOVCOVCOVCOVCOVCOVCOVCOVCOVCOVCBKNBKNBKN
FltCatVFRVFRVFRVFRMVFRMVFRMVFRMVFRIFRMVFRVFRVFRVFR
WX---RA-RA-----------RA BRBR------
WDir160170180160190190190200240180200180180
WSpd9 12 13 10 11 15 12 6 9 10 12 11 11
WGst-- -- -- -- -- 23 -- -- -- -- -- -- --
Raw hourly METARs
KDTW 210853Z 16009KT 8SM BKN035 BKN060 OVC100 22/18 A3002 RMK AO2 SLP162 60000 T02170183 58008
KDTW 210953Z 17012KT 7SM -RA BKN035 OVC065 22/19 A3002 RMK AO2 RAB38 SLP161 P0000 T02170189
KDTW 211053Z 18013KT 6SM -RA SCT025 BKN040 OVC075 22/18 A3002 RMK AO2 RAE17B50 SLP160 P0000 T02170183
KDTW 211153Z 16010KT 8SM FEW025 BKN070 OVC150 21/18 A3001 RMK AO2 RAE17 SLP160 P0000 60000 70001 T02060183 10222 20206 57002
KDTW 211253Z 19011KT 8SM BKN025 OVC055 22/18 A3002 RMK AO2 SLP163 T02170178
KDTW 211353Z 19015G23KT 7SM OVC025 22/18 A3002 RMK AO2 SLP162 T02170178
KDTW 211453Z 19012KT 7SM OVC022 22/18 A3004 RMK AO2 SLP169 T02220183 53008
KDTW 211553Z 20006KT 7SM OVC023 22/18 A3005 RMK AO2 SLP173 T02220183
KDTW 211653Z 24009KT 1SM R03R/P6000FT -RA BR OVC019 21/19 A3006 RMK AO2 SFC VIS 1 3/4 RAB20 SLP176 P0000 T02110194
KDTW 211753Z 18010KT 4SM BR FEW007 BKN020 OVC035 21/20 A3005 RMK AO2 RAE35 SLP172 P0003 60003 T02110200 10222 20206 58000
KDTW 211853Z 20012KT 7SM FEW010 BKN060 BKN150 23/21 A3003 RMK AO2 SLP166 T02280211
KDTW 211953Z 18011KT 8SM SCT014 BKN060 BKN150 24/20 A3002 RMK AO2 SLP163 T02440200
KDTW 212053Z 18011KT 8SM SCT014 BKN060 BKN150 23/19 A3001 RMK AO2 SLP160 T02330194 58006



Page loaded:  21:01 UTC  |   02:01 PM Pacific  |   03:01 PM Mountain  |   04:01 PM Central  |   05:01 PM Eastern

 

ADVISORIES

FORECASTS

FORECASTS

OBSERVATIONS

USER TOOLS

ABOUT US